Time;durP1;ratioP1;P1;durP2;ratioP2;P2;SDS_P1;SDS_P2;PMS_P1;PMS_P2;Temp;Humidity;BMP_temperature;BMP_pressure;BME280_temperature;BME280_humidity;BME280_pressure;Samples;Min_cycle;Max_cycle;Signal;HPM_P1;HPM_P2
2023/02/14 00:01:47;;;;;;;11.38;8.73;;;9.70;80.40;;;;;;4856015;29;20025;-81
2023/02/14 00:04:14;;;;;;;10.82;8.23;;;9.70;80.40;;;;;;4858883;29;20033;-80
2023/02/14 00:06:40;;;;;;;11.00;8.45;;;9.70;80.40;;;;;;4860366;29;20379;-81
2023/02/14 00:09:07;;;;;;;11.77;9.13;;;9.60;80.30;;;;;;4872780;29;20055;-80
2023/02/14 00:11:33;;;;;;;10.57;8.07;;;9.60;80.30;;;;;;4859655;29;20112;-79
2023/02/14 00:16:43;;;;;;;10.07;8.07;;;9.60;80.30;;;;;;4855680;29;20041;-81
2023/02/14 00:19:14;;;;;;;11.25;8.32;;;9.50;80.30;;;;;;4861151;29;20034;-80
2023/02/14 00:21:40;;;;;;;10.60;7.80;;;9.50;80.30;;;;;;4857932;29;20070;-80
2023/02/14 00:24:21;;;;;;;11.25;8.30;;;9.50;80.30;;;;;;4860753;29;20072;-80
2023/02/14 00:26:47;;;;;;;10.60;8.00;;;9.50;80.30;;;;;;4860577;29;20032;-81
2023/02/14 00:29:21;;;;;;;11.10;8.48;;;9.50;80.40;;;;;;4858821;29;20133;-80
2023/02/14 00:31:49;;;;;;;10.63;8.00;;;9.40;80.30;;;;;;4844395;29;20037;-80
2023/02/14 00:34:16;;;;;;;12.40;9.20;;;9.40;80.30;;;;;;4859520;29;20493;-80
2023/02/14 00:36:43;;;;;;;9.90;8.07;;;9.40;80.40;;;;;;4844188;29;20044;-80
2023/02/14 00:39:11;;;;;;;11.63;8.85;;;9.40;80.40;;;;;;4845222;29;20033;-81
2023/02/14 00:41:38;;;;;;;11.18;8.77;;;9.40;80.40;;;;;;4860131;29;20044;-80
2023/02/14 00:44:05;;;;;;;11.20;8.27;;;9.30;80.40;;;;;;4859436;29;20478;-80
2023/02/14 00:46:31;;;;;;;11.60;8.13;;;9.30;80.40;;;;;;4862364;29;20026;-80
2023/02/14 00:48:56;;;;;;;9.98;7.88;;;9.30;80.40;;;;;;4844638;29;20056;-80
2023/02/14 00:51:23;;;;;;;10.45;8.60;;;9.30;80.40;;;;;;4845727;29;20033;-80
2023/02/14 00:53:50;;;;;;;12.48;8.65;;;9.20;80.40;;;;;;4827870;29;20045;-80
2023/02/14 00:56:16;;;;;;;10.43;7.82;;;9.20;80.40;;;;;;4831278;29;20029;-80
2023/02/14 00:58:43;;;;;;;10.73;8.23;;;9.20;80.40;;;;;;4839751;29;20030;-80
2023/02/14 01:01:08;;;;;;;11.93;8.18;;;9.10;80.30;;;;;;4845857;29;20036;-81
2023/02/14 01:03:35;;;;;;;10.70;8.15;;;9.10;80.30;;;;;;4843484;29;20041;-81
2023/02/14 01:06:01;;;;;;;10.20;8.57;;;9.10;80.40;;;;;;4859603;29;20044;-80
2023/02/14 01:08:29;;;;;;;11.70;8.60;;;9.10;80.40;;;;;;4843574;29;20082;-80
2023/02/14 01:10:54;;;;;;;10.52;8.30;;;9.00;80.40;;;;;;4842003;29;20121;-80
2023/02/14 01:13:21;;;;;;;10.73;8.15;;;9.00;80.30;;;;;;4844769;29;20094;-80
2023/02/14 01:15:48;;;;;;;9.40;7.38;;;9.00;80.40;;;;;;4843263;29;20041;-80
2023/02/14 01:18:15;;;;;;;10.85;8.35;;;9.00;80.40;;;;;;4851160;29;20063;-80
2023/02/14 01:20:41;;;;;;;10.57;8.13;;;9.00;80.40;;;;;;4843539;29;20034;-80
2023/02/14 01:23:07;;;;;;;10.07;7.97;;;8.90;80.40;;;;;;4843575;29;20041;-80
2023/02/14 01:25:35;;;;;;;10.18;8.07;;;8.90;80.40;;;;;;4826837;29;20030;-81
2023/02/14 01:28:00;;;;;;;12.52;8.27;;;8.80;80.40;;;;;;4859617;29;20491;-80
2023/02/14 01:30:26;;;;;;;10.70;7.57;;;8.90;80.40;;;;;;4843195;29;20093;-79
2023/02/14 01:32:52;;;;;;;10.75;8.25;;;8.80;80.40;;;;;;4827072;29;20372;-81
2023/02/14 01:35:18;;;;;;;11.48;7.88;;;8.80;80.40;;;;;;4842924;29;20094;-80
2023/02/14 01:37:43;;;;;;;9.93;7.90;;;8.80;80.50;;;;;;4836984;29;20048;-80
2023/02/14 01:40:10;;;;;;;10.18;7.88;;;8.70;80.40;;;;;;4842307;29;20777;-80
2023/02/14 01:42:37;;;;;;;11.10;8.52;;;8.70;80.40;;;;;;4865064;29;20033;-79
2023/02/14 01:45:17;;;;;;;11.00;7.88;;;8.70;80.50;;;;;;4861415;29;20116;-80
2023/02/14 01:47:47;;;;;;;10.20;7.00;;;8.70;80.50;;;;;;4860078;29;20390;-81
2023/02/14 01:50:28;;;;;;;9.80;7.60;;;8.60;80.40;;;;;;4858070;29;20041;-80
2023/02/14 01:52:58;;;;;;;10.27;7.72;;;8.60;80.50;;;;;;4866872;29;20029;-80
2023/02/14 01:55:28;;;;;;;9.50;7.22;;;8.60;80.60;;;;;;4869186;29;20136;-80
2023/02/14 01:58:01;;;;;;;8.73;6.80;;;8.50;80.60;;;;;;4865061;29;20037;-79
2023/02/14 02:03:12;;;;;;;9.07;6.87;;;8.50;80.60;;;;;;4843935;29;20060;-80
2023/02/14 02:05:44;;;;;;;9.10;6.90;;;8.40;80.60;;;;;;4846687;29;20048;-80
2023/02/14 02:08:11;;;;;;;10.05;7.47;;;8.40;80.70;;;;;;4849136;29;20040;-80
2023/02/14 02:10:36;;;;;;;10.50;7.47;;;8.40;80.70;;;;;;4858755;29;20497;-80
2023/02/14 02:13:06;;;;;;;8.73;7.15;;;8.40;80.70;;;;;;4837739;29;20045;-79
2023/02/14 02:15:55;;;;;;;9.85;7.60;;;8.40;80.70;;;;;;4873866;29;20075;-79
2023/02/14 02:18:30;;;;;;;10.45;6.95;;;8.30;80.70;;;;;;4859153;29;20033;-80
2023/02/14 02:21:01;;;;;;;8.70;7.00;;;8.30;80.70;;;;;;4859075;29;20092;-80
2023/02/14 02:23:39;;;;;;;9.77;7.40;;;8.30;80.70;;;;;;4846377;29;20628;-81
2023/02/14 02:26:22;;;;;;;9.50;7.22;;;8.20;80.80;;;;;;4857109;29;20036;-81
2023/02/14 02:29:19;;;;;;;9.82;7.30;;;8.20;80.90;;;;;;4842035;29;20038;-80
2023/02/14 02:32:22;;;;;;;8.98;7.30;;;8.10;80.80;;;;;;4855861;29;20038;-81
2023/02/14 02:35:21;;;;;;;9.32;7.18;;;8.10;80.90;;;;;;4860833;29;20053;-80
2023/02/14 02:38:13;;;;;;;9.77;7.25;;;8.10;80.90;;;;;;4844769;29;20372;-79
2023/02/14 02:40:51;;;;;;;9.82;7.53;;;8.00;80.80;;;;;;4840742;29;20041;-81
2023/02/14 02:43:35;;;;;;;9.18;6.53;;;8.00;80.90;;;;;;4868989;29;20041;-80
2023/02/14 02:53:01;;;;;;;9.25;7.28;;;7.90;80.80;;;;;;4858147;29;20086;-81
2023/02/14 02:54:58;;;;;;;9.77;7.20;;;7.90;80.90;;;;;;4825386;29;20041;-80
2023/02/14 02:57:34;;;;;;;9.65;6.88;;;7.80;80.90;;;;;;4869301;29;20077;-80
2023/02/14 03:00:04;;;;;;;9.50;7.20;;;7.80;80.90;;;;;;4841277;29;20033;-80
2023/02/14 03:04:46;;;;;;;9.32;7.15;;;7.80;80.90;;;;;;4866951;29;20121;-80
2023/02/14 03:05:21;;;;;;;9.75;7.22;;;7.80;81.00;;;;;;4856421;29;20048;-81
2023/02/14 03:07:49;;;;;;;9.13;6.70;;;7.80;80.90;;;;;;4827395;29;20033;-80
2023/02/14 03:10:22;;;;;;;8.27;6.95;;;7.80;80.90;;;;;;4839900;29;20037;-81
2023/02/14 03:13:07;;;;;;;9.93;7.55;;;7.70;80.90;;;;;;4832064;29;20033;-80
2023/02/14 03:15:33;;;;;;;;;;;7.70;80.90;;;;;;4872468;29;20040;-80
2023/02/14 03:18:21;;;;;;;7.88;6.35;;;7.70;80.90;;;;;;4858150;29;20010;-81
2023/02/14 03:21:03;;;;;;;8.80;6.70;;;7.60;80.90;;;;;;4844631;29;20033;-82
2023/02/14 03:24:04;;;;;;;9.60;7.18;;;7.60;81.00;;;;;;4841753;29;20101;-79
2023/02/14 03:26:43;;;;;;;9.40;6.70;;;7.60;81.00;;;;;;4816110;29;20054;-80
2023/02/14 03:29:19;;;;;;;8.43;6.82;;;7.50;80.90;;;;;;4857394;29;20041;-80
2023/02/14 03:32:14;;;;;;;9.23;7.40;;;7.50;80.90;;;;;;4869119;29;20026;-80
2023/02/14 03:34:58;;;;;;;8.52;6.45;;;7.50;81.00;;;;;;4859382;29;20399;-79
2023/02/14 03:37:38;;;;;;;8.50;6.70;;;7.50;80.90;;;;;;4849419;29;20037;-79
2023/02/14 03:40:14;;;;;;;8.90;7.10;;;7.40;80.90;;;;;;4866906;29;20026;-80
2023/02/14 03:42:59;;;;;;;8.43;6.55;;;7.40;80.90;;;;;;4845234;29;20049;-81
2023/02/14 03:45:35;;;;;;;8.20;6.53;;;7.40;80.90;;;;;;4847377;29;20026;-80
2023/02/14 03:48:05;;;;;;;8.40;6.30;;;7.40;80.90;;;;;;4860344;29;20033;-79
2023/02/14 03:50:33;;;;;;;8.75;6.70;;;7.40;80.90;;;;;;4860797;29;20040;-79
2023/02/14 03:53:00;;;;;;;9.45;6.85;;;7.30;80.90;;;;;;4864906;29;20048;-79
2023/02/14 03:55:42;;;;;;;10.15;7.45;;;7.30;80.90;;;;;;4859097;29;20037;-80
2023/02/14 03:58:11;;;;;;;9.27;7.35;;;7.30;80.90;;;;;;4858212;29;20110;-80
2023/02/14 04:00:40;;;;;;;9.88;6.90;;;7.30;80.90;;;;;;4861155;29;20053;-81
2023/02/14 04:03:11;;;;;;;9.70;7.30;;;7.30;80.90;;;;;;4847322;29;20124;-80
2023/02/14 04:05:41;;;;;;;8.88;7.22;;;7.30;80.90;;;;;;4861030;29;20044;-81
2023/02/14 04:08:07;;;;;;;8.18;6.28;;;7.20;80.90;;;;;;4861570;29;20022;-81
2023/02/14 04:10:33;;;;;;;8.82;6.68;;;7.20;80.80;;;;;;4844956;29;20025;-79
2023/02/14 04:12:58;;;;;;;9.13;7.00;;;7.20;80.90;;;;;;4844407;29;20132;-80
2023/02/14 04:15:24;;;;;;;8.50;6.85;;;7.20;80.90;;;;;;4830876;29;20141;-80
2023/02/14 04:20:35;;;;;;;8.75;6.70;;;7.20;80.90;;;;;;4862583;29;20053;-82
2023/02/14 04:23:02;;;;;;;9.57;6.80;;;7.10;80.80;;;;;;4842893;29;20116;-80
2023/02/14 04:25:28;;;;;;;8.20;6.38;;;7.10;80.90;;;;;;4860026;29;20041;-80
2023/02/14 04:27:54;;;;;;;7.72;5.82;;;7.10;80.90;;;;;;4843301;29;20030;-79
2023/02/14 04:30:21;;;;;;;8.95;6.75;;;7.00;80.80;;;;;;4845929;29;20029;-80
2023/02/14 04:32:48;;;;;;;9.15;7.20;;;7.00;80.80;;;;;;4867439;29;20052;-80
2023/02/14 04:35:14;;;;;;;11.27;7.45;;;7.00;80.80;;;;;;4860220;29;20050;-79
2023/02/14 04:37:40;;;;;;;8.57;6.30;;;7.00;80.80;;;;;;4832888;29;20105;-81
2023/02/14 04:40:06;;;;;;;8.75;6.80;;;7.00;80.80;;;;;;4847211;29;20025;-80
2023/02/14 04:42:32;;;;;;;10.30;7.18;;;6.90;81.40;;;;;;4847674;29;20033;-81
2023/02/14 04:44:58;;;;;;;8.25;6.28;;;6.90;80.80;;;;;;4861434;29;20093;-79
2023/02/14 04:47:24;;;;;;;9.10;6.65;;;6.90;80.80;;;;;;4856818;29;20026;-79
2023/02/14 04:49:50;;;;;;;9.13;6.78;;;6.90;80.80;;;;;;4859259;29;20029;-80
2023/02/14 04:52:15;;;;;;;8.88;6.65;;;6.90;80.80;;;;;;4828638;29;20043;-80
2023/02/14 04:54:41;;;;;;;9.20;6.40;;;6.90;80.80;;;;;;4866974;29;20067;-79
2023/02/14 04:57:07;;;;;;;9.77;7.38;;;6.80;80.70;;;;;;4822892;29;20077;-80
2023/02/14 04:59:33;;;;;;;8.45;6.50;;;6.80;80.70;;;;;;4854256;29;20045;-79
2023/02/14 05:01:59;;;;;;;8.88;6.28;;;6.80;80.70;;;;;;4858833;29;20048;-79
2023/02/14 05:04:24;;;;;;;8.77;6.82;;;6.80;80.80;;;;;;4859988;29;20037;-80
2023/02/14 05:06:50;;;;;;;8.93;7.07;;;6.80;80.70;;;;;;4814439;29;20511;-79
2023/02/14 05:09:16;;;;;;;8.20;6.68;;;6.70;80.70;;;;;;4842749;29;20037;-78
2023/02/14 05:11:42;;;;;;;7.72;6.20;;;6.70;80.70;;;;;;4851841;29;20382;-80
2023/02/14 05:14:07;;;;;;;7.55;6.22;;;6.70;80.70;;;;;;4830032;29;20056;-80
2023/02/14 05:16:33;;;;;;;8.40;6.70;;;6.70;80.70;;;;;;4824517;29;20444;-79
2023/02/14 05:18:59;;;;;;;8.48;6.40;;;6.70;80.70;;;;;;4859176;29;20056;-80
2023/02/14 05:21:25;;;;;;;7.85;6.32;;;6.60;80.70;;;;;;4831053;29;20036;-80
2023/02/14 05:23:50;;;;;;;9.40;6.63;;;6.60;80.70;;;;;;4855164;29;20029;-81
2023/02/14 05:26:16;;;;;;;8.18;6.20;;;6.60;80.70;;;;;;4856181;29;20029;-80
2023/02/14 05:28:42;;;;;;;8.90;6.40;;;6.60;80.70;;;;;;4845098;29;20049;-79
2023/02/14 05:31:08;;;;;;;8.80;6.68;;;6.60;80.70;;;;;;4840981;29;20621;-80
2023/02/14 05:33:34;;;;;;;8.52;6.93;;;6.60;80.70;;;;;;4865334;29;20390;-79
2023/02/14 05:36:01;;;;;;;8.02;6.55;;;6.60;80.70;;;;;;4862942;29;20070;-79
2023/02/14 05:38:28;;;;;;;8.30;5.88;;;6.50;80.70;;;;;;4842951;29;20543;-79
2023/02/14 05:40:54;;;;;;;8.18;6.35;;;6.50;80.70;;;;;;4840040;29;20391;-79
2023/02/14 05:43:20;;;;;;;8.07;6.40;;;6.50;80.70;;;;;;4858940;29;20043;-80
2023/02/14 05:45:46;;;;;;;8.10;6.13;;;6.40;80.70;;;;;;4845450;29;20558;-78
2023/02/14 05:48:12;;;;;;;8.75;6.70;;;6.50;80.70;;;;;;4842744;29;20060;-78
2023/02/14 05:50:38;;;;;;;8.75;6.55;;;6.40;80.70;;;;;;4824596;29;20481;-79
2023/02/14 05:53:04;;;;;;;8.10;6.28;;;6.40;80.70;;;;;;4859674;29;20033;-79
2023/02/14 05:55:30;;;;;;;7.55;5.90;;;6.40;80.70;;;;;;4841560;29;20048;-81
2023/02/14 05:57:55;;;;;;;7.95;5.88;;;6.40;80.70;;;;;;4804734;29;20390;-77
2023/02/14 06:00:23;;;;;;;8.23;6.18;;;6.40;80.70;;;;;;4840565;29;20028;-79
2023/02/14 06:02:49;;;;;;;8.13;5.72;;;6.30;80.70;;;;;;4842070;29;20033;-79
2023/02/14 06:05:17;;;;;;;7.75;6.00;;;6.30;80.70;;;;;;4839891;29;20045;-78
2023/02/14 06:07:49;;;;;;;8.63;5.93;;;6.30;80.70;;;;;;4839807;29;20034;-79
2023/02/14 06:10:18;;;;;;;8.65;6.45;;;6.30;80.70;;;;;;4838512;29;20033;-79
2023/02/14 06:12:45;;;;;;;7.78;6.20;;;6.30;80.70;;;;;;4841508;29;20060;-76
2023/02/14 06:15:11;;;;;;;7.78;6.10;;;6.30;80.70;;;;;;4857013;29;20097;-78
2023/02/14 06:17:36;;;;;;;8.55;5.88;;;6.20;80.60;;;;;;4857659;29;20534;-78
2023/02/14 06:20:03;;;;;;;8.52;6.38;;;6.30;80.70;;;;;;4840831;29;20072;-79
2023/02/14 06:22:29;;;;;;;8.38;6.22;;;6.20;80.70;;;;;;4860010;29;20526;-78
2023/02/14 06:24:55;;;;;;;9.73;6.15;;;6.20;80.60;;;;;;4841083;29;20125;-79
2023/02/14 06:27:20;;;;;;;8.00;5.95;;;6.20;80.70;;;;;;4829838;29;20438;-78
2023/02/14 06:29:46;;;;;;;7.88;6.00;;;6.20;80.70;;;;;;4864638;29;20033;-78
2023/02/14 06:32:12;;;;;;;8.52;6.35;;;6.10;80.70;;;;;;4860555;29;20037;-79
2023/02/14 06:34:39;;;;;;;8.07;6.22;;;6.10;80.70;;;;;;4882399;29;20469;-80
2023/02/14 06:37:06;;;;;;;7.93;5.93;;;6.10;80.60;;;;;;4858831;29;20430;-78
2023/02/14 06:39:32;;;;;;;7.80;6.18;;;6.10;80.60;;;;;;4873395;29;20044;-77
2023/02/14 06:41:58;;;;;;;8.65;6.55;;;6.10;80.60;;;;;;4859830;29;20037;-77
2023/02/14 06:44:23;;;;;;;7.18;5.50;;;6.00;80.60;;;;;;4858842;29;20033;-79
2023/02/14 06:46:49;;;;;;;8.15;6.15;;;6.10;80.60;;;;;;4835823;29;20029;-78
2023/02/14 06:49:15;;;;;;;7.43;5.95;;;6.10;80.70;;;;;;4843778;29;20029;-78
2023/02/14 06:51:40;;;;;;;8.30;6.13;;;6.00;80.60;;;;;;4844395;29;20395;-79
2023/02/14 06:54:06;;;;;;;8.43;5.88;;;6.00;80.60;;;;;;4862199;29;20089;-78
2023/02/14 06:56:32;;;;;;;8.23;6.15;;;6.00;80.60;;;;;;4861154;29;20037;-78
2023/02/14 06:58:57;;;;;;;8.00;6.00;;;6.00;80.60;;;;;;4842521;29;20053;-79
2023/02/14 07:01:23;;;;;;;8.07;5.90;;;6.00;80.60;;;;;;4838506;29;20026;-78
2023/02/14 07:03:49;;;;;;;7.57;6.38;;;5.90;80.60;;;;;;4857268;29;20045;-78
2023/02/14 07:06:15;;;;;;;8.32;6.25;;;5.90;80.60;;;;;;4857263;29;20082;-79
2023/02/14 07:08:41;;;;;;;7.47;5.95;;;5.90;80.60;;;;;;4858429;29;20089;-79
2023/02/14 07:11:07;;;;;;;7.63;5.75;;;5.90;80.60;;;;;;4857215;29;20109;-78
2023/02/14 07:13:33;;;;;;;8.35;6.32;;;5.90;80.60;;;;;;4856950;29;20636;-78
2023/02/14 07:15:58;;;;;;;8.13;6.05;;;5.90;80.60;;;;;;4857343;29;20120;-79
2023/02/14 07:18:24;;;;;;;8.48;6.10;;;5.90;80.60;;;;;;4857068;29;20120;-78
2023/02/14 07:20:50;;;;;;;8.63;6.28;;;5.80;80.60;;;;;;4859510;29;20150;-79
2023/02/14 07:23:16;;;;;;;9.85;6.57;;;5.80;80.60;;;;;;4857030;29;20112;-78
2023/02/14 07:25:41;;;;;;;8.25;6.28;;;5.80;80.60;;;;;;4858223;29;20112;-78
2023/02/14 07:28:07;;;;;;;9.07;6.78;;;5.80;80.60;;;;;;4838652;29;20037;-78
2023/02/14 07:30:33;;;;;;;8.50;6.90;;;5.80;80.60;;;;;;4828223;29;20158;-78
2023/02/14 07:32:59;;;;;;;8.07;6.25;;;5.70;80.50;;;;;;4847359;29;20051;-78
2023/02/14 07:35:25;;;;;;;8.80;6.53;;;5.70;80.50;;;;;;4866314;29;20053;-78
2023/02/14 07:37:51;;;;;;;8.90;7.13;;;5.80;80.60;;;;;;4864949;29;20036;-79
2023/02/14 07:40:18;;;;;;;8.13;6.22;;;5.70;80.50;;;;;;4854498;29;20030;-77
2023/02/14 07:42:51;;;;;;;8.38;6.65;;;5.70;80.60;;;;;;4858302;29;20091;-78
2023/02/14 07:45:17;;;;;;;8.68;6.93;;;5.70;80.60;;;;;;4857186;29;20485;-79
2023/02/14 07:47:42;;;;;;;7.90;6.25;;;5.70;80.60;;;;;;4857057;29;20029;-77
2023/02/14 07:50:08;;;;;;;8.35;6.30;;;5.70;80.60;;;;;;4864826;29;20069;-78
2023/02/14 07:52:34;;;;;;;7.47;6.28;;;5.70;80.60;;;;;;4858619;29;20415;-77
2023/02/14 07:55:00;;;;;;;9.00;6.30;;;5.60;80.60;;;;;;4839365;29;20386;-79
2023/02/14 07:57:25;;;;;;;8.60;6.60;;;5.60;80.60;;;;;;4835314;29;20550;-78
2023/02/14 07:59:51;;;;;;;8.48;6.32;;;5.60;80.50;;;;;;4858059;29;20029;-77
2023/02/14 08:02:19;;;;;;;7.72;5.93;;;5.60;80.50;;;;;;4858956;29;20021;-78
2023/02/14 08:04:45;;;;;;;8.15;6.63;;;5.60;80.60;;;;;;4857551;29;20065;-79
2023/02/14 08:07:11;;;;;;;8.25;6.50;;;5.60;80.50;;;;;;4854840;29;20390;-79
2023/02/14 08:09:36;;;;;;;8.30;6.90;;;5.60;80.50;;;;;;4844034;29;20053;-78
2023/02/14 08:14:47;;;;;;;7.83;6.57;;;5.60;80.60;;;;;;4847851;29;20426;-79
2023/02/14 08:17:12;;;;;;;7.78;6.05;;;5.60;80.50;;;;;;4860258;29;20322;-79
2023/02/14 08:19:39;;;;;;;8.77;7.03;;;5.60;80.60;;;;;;4845080;29;20041;-78
2023/02/14 08:22:06;;;;;;;8.13;6.53;;;5.60;80.60;;;;;;4862784;29;20021;-78
2023/02/14 08:24:31;;;;;;;8.82;7.03;;;5.60;80.60;;;;;;4867070;29;20036;-79
2023/02/14 08:26:57;;;;;;;8.35;6.65;;;5.60;80.60;;;;;;4859492;29;20514;-78
2023/02/14 08:29:23;;;;;;;10.30;6.55;;;5.60;80.60;;;;;;4847745;29;20098;-78
2023/02/14 08:31:49;;;;;;;8.45;6.50;;;5.60;80.60;;;;;;4848735;29;20029;-78
2023/02/14 08:34:16;;;;;;;8.75;7.25;;;5.60;80.60;;;;;;4859493;29;20044;-79
2023/02/14 08:36:42;;;;;;;9.50;7.13;;;5.60;80.60;;;;;;4835245;29;20057;-80
2023/02/14 08:39:08;;;;;;;8.95;6.95;;;5.60;80.60;;;;;;4850787;29;20475;-83
2023/02/14 08:41:34;;;;;;;8.82;6.75;;;5.50;81.00;;;;;;4871645;29;20032;-79
2023/02/14 08:44:00;;;;;;;7.88;6.43;;;5.60;80.60;;;;;;4867054;29;20045;-81
2023/02/14 08:46:27;;;;;;;9.00;6.35;;;5.50;80.60;;;;;;4880757;29;20029;-79
2023/02/14 08:48:53;;;;;;;8.45;6.68;;;5.60;80.60;;;;;;4867325;29;20029;-78
2023/02/14 08:51:21;;;;;;;8.13;6.20;;;5.60;80.60;;;;;;4852020;29;20032;-79
2023/02/14 08:53:50;;;;;;;9.45;6.78;;;5.60;80.60;;;;;;4860288;29;20117;-79
2023/02/14 08:56:16;;;;;;;8.63;6.70;;;5.60;80.60;;;;;;4860743;29;20378;-78
2023/02/14 08:58:42;;;;;;;9.40;7.00;;;5.60;80.60;;;;;;4861956;29;20052;-78
2023/02/14 09:01:14;;;;;;;8.23;6.30;;;5.60;80.60;;;;;;4845109;29;20116;-78
2023/02/14 09:03:40;;;;;;;8.50;6.32;;;5.60;80.60;;;;;;4860119;29;20041;-79
2023/02/14 09:06:08;;;;;;;8.48;6.80;;;5.60;80.60;;;;;;4860398;29;20030;-79
2023/02/14 09:08:35;;;;;;;9.52;6.70;;;5.60;80.60;;;;;;4859436;29;20060;-79
2023/02/14 09:11:17;;;;;;;8.52;6.97;;;5.60;80.60;;;;;;4861098;29;20067;-80
2023/02/14 09:13:45;;;;;;;8.35;5.93;;;5.60;80.60;;;;;;4873858;29;20041;-80
2023/02/14 09:16:13;;;;;;;8.07;6.40;;;5.70;80.60;;;;;;4859016;29;20045;-80
2023/02/14 09:18:39;;;;;;;9.40;7.38;;;5.70;80.60;;;;;;4861390;29;20423;-79
2023/02/14 09:21:10;;;;;;;9.48;7.03;;;5.70;80.70;;;;;;4851552;29;20025;-79
2023/02/14 09:23:36;;;;;;;9.00;7.07;;;5.70;80.70;;;;;;4860238;29;20034;-80
2023/02/14 09:26:05;;;;;;;9.27;6.97;;;5.70;80.60;;;;;;4867710;29;20033;-80
2023/02/14 09:28:31;;;;;;;9.88;7.70;;;5.80;80.70;;;;;;4862184;29;20040;-79
2023/02/14 09:30:57;;;;;;;8.77;7.20;;;5.80;80.60;;;;;;4860191;29;20017;-79
2023/02/14 09:33:27;;;;;;;7.78;6.38;;;5.80;80.60;;;;;;4861205;29;20467;-79
2023/02/14 09:35:53;;;;;;;10.18;7.68;;;5.80;80.60;;;;;;4858496;29;20570;-80
2023/02/14 09:38:19;;;;;;;9.27;7.25;;;5.90;80.60;;;;;;4858830;29;20086;-81
2023/02/14 09:40:47;;;;;;;9.65;7.68;;;5.90;80.60;;;;;;4817374;29;20033;-79
2023/02/14 09:43:33;;;;;;;9.70;7.53;;;5.90;80.60;;;;;;4824466;29;20052;-80
2023/02/14 09:46:01;;;;;;;10.45;7.75;;;6.00;80.70;;;;;;4854371;29;20038;-81
2023/02/14 09:48:40;;;;;;;9.30;7.35;;;6.00;80.60;;;;;;4860955;29;20029;-78
2023/02/14 09:51:16;;;;;;;8.90;7.03;;;6.00;80.70;;;;;;4841617;29;20445;-80
2023/02/14 09:54:01;;;;;;;9.40;7.45;;;6.10;80.70;;;;;;4855447;29;20498;-79
2023/02/14 09:56:43;;;;;;;9.93;7.82;;;6.10;80.70;;;;;;4859485;29;20026;-79
2023/02/14 09:59:44;;;;;;;8.98;7.30;;;6.20;80.60;;;;;;4860239;29;20037;-79
2023/02/14 10:02:24;;;;;;;10.93;7.88;;;6.20;80.70;;;;;;4860208;29;20054;-80
2023/02/14 10:05:08;;;;;;;8.95;6.43;;;6.30;80.70;;;;;;4860739;29;20092;-80
2023/02/14 10:08:06;;;;;;;9.98;7.80;;;6.30;80.70;;;;;;4844812;29;20029;-78
2023/02/14 10:10:41;;;;;;;10.05;7.55;;;6.30;80.50;;;;;;4856627;29;20049;-79
2023/02/14 10:13:17;;;;;;;10.70;7.85;;;6.40;80.60;;;;;;4843349;29;20087;-79
2023/02/14 10:16:03;;;;;;;9.75;7.88;;;6.40;80.50;;;;;;4877714;29;20073;-80
2023/02/14 10:18:41;;;;;;;10.35;7.65;;;6.50;80.70;;;;;;4846688;29;20044;-80
2023/02/14 10:21:12;;;;;;;9.90;7.50;;;6.60;80.70;;;;;;4858888;29;20037;-79
2023/02/14 10:23:48;;;;;;;10.05;7.82;;;6.60;80.60;;;;;;4866064;29;20048;-80
2023/02/14 10:26:26;;;;;;;12.52;8.90;;;6.70;80.70;;;;;;4858407;29;20093;-80
2023/02/14 10:28:53;;;;;;;11.00;7.82;;;6.80;80.80;;;;;;4858467;29;20034;-79
2023/02/14 10:31:54;;;;;;;11.00;8.10;;;6.80;80.60;;;;;;4830127;29;20030;-79
2023/02/14 10:34:42;;;;;;;9.57;7.93;;;6.90;80.80;;;;;;4850380;29;20438;-79
2023/02/14 10:37:43;;;;;;;11.45;8.73;;;7.00;80.80;;;;;;4853455;29;20479;-79
2023/02/14 10:40:21;;;;;;;10.52;8.60;;;7.00;80.70;;;;;;4831316;29;20037;-80
2023/02/14 10:43:09;;;;;;;11.00;8.35;;;7.10;80.70;;;;;;4836648;29;20090;-79
2023/02/14 10:45:35;;;;;;;9.95;7.90;;;7.20;80.80;;;;;;4851064;29;20032;-78
2023/02/14 10:48:19;;;;;;;11.02;8.52;;;7.20;80.70;;;;;;4858183;29;20037;-82
2023/02/14 10:51:18;;;;;;;10.47;8.00;;;7.30;80.90;;;;;;4861622;29;20029;-80
2023/02/14 10:53:55;;;;;;;11.38;8.88;;;7.40;81.00;;;;;;4842306;29;20905;-79
2023/02/14 10:56:35;;;;;;;12.35;9.23;;;7.40;80.90;;;;;;4858334;29;20056;-79
2023/02/14 10:59:26;;;;;;;12.10;9.35;;;7.50;81.00;;;;;;4857802;29;20467;-80
2023/02/14 11:01:54;;;;;;;11.43;8.93;;;7.60;81.20;;;;;;4858455;29;20475;-80
2023/02/14 11:04:23;;;;;;;11.48;8.88;;;7.60;81.00;;;;;;4842944;29;20037;-79
2023/02/14 11:06:49;;;;;;;12.02;9.70;;;7.70;81.10;;;;;;4860296;29;20421;-79
2023/02/14 11:09:17;;;;;;;12.23;9.88;;;7.80;81.20;;;;;;4861911;29;20018;-80
2023/02/14 11:11:58;;;;;;;12.63;10.23;;;7.80;81.30;;;;;;4861165;29;20030;-79
2023/02/14 11:14:28;;;;;;;12.27;9.57;;;7.90;81.40;;;;;;4858563;29;20064;-79
2023/02/14 11:16:55;;;;;;;13.10;10.30;;;8.00;81.40;;;;;;4853256;29;20033;-79
2023/02/14 11:19:33;;;;;;;13.98;10.32;;;8.00;81.40;;;;;;4861407;29;20117;-80
2023/02/14 11:22:00;;;;;;;12.70;10.40;;;8.10;81.60;;;;;;4858240;29;20048;-79
2023/02/14 11:24:33;;;;;;;12.75;10.13;;;8.10;81.50;;;;;;4853745;29;20098;-80
2023/02/14 11:27:11;;;;;;;12.02;10.15;;;8.20;81.70;;;;;;4854409;29;20583;-80
2023/02/14 11:29:40;;;;;;;14.82;11.15;;;8.30;81.80;;;;;;4866155;29;20031;-79
2023/02/14 11:32:19;;;;;;;12.25;9.75;;;8.30;81.70;;;;;;4863016;29;20029;-80
2023/02/14 11:34:53;;;;;;;11.73;9.82;;;8.40;81.80;;;;;;4857546;29;20064;-81
2023/02/14 11:37:21;;;;;;;12.75;10.02;;;8.40;81.90;;;;;;4852769;29;20052;-80
2023/02/14 11:39:49;;;;;;;13.40;11.10;;;8.50;81.90;;;;;;4858233;29;20037;-80
2023/02/14 11:42:44;;;;;;;13.68;10.93;;;8.60;82.00;;;;;;4844977;29;20029;-79
2023/02/14 11:45:30;;;;;;;13.27;10.45;;;8.60;82.20;;;;;;4867811;29;20045;-80
2023/02/14 11:48:08;;;;;;;12.32;9.70;;;8.60;82.10;;;;;;4862004;29;20032;-79
2023/02/14 11:50:36;;;;;;;13.13;10.18;;;8.70;82.20;;;;;;4857522;29;20086;-79
2023/02/14 11:53:02;;;;;;;13.93;11.13;;;8.70;82.10;;;;;;4858288;29;20038;-80
2023/02/14 11:55:34;;;;;;;13.07;11.25;;;8.80;82.20;;;;;;4858619;29;20534;-79
2023/02/14 11:58:04;;;;;;;13.40;11.07;;;8.90;82.50;;;;;;4836611;29;20041;-79
2023/02/14 12:00:30;;;;;;;13.98;11.25;;;8.90;82.40;;;;;;4856424;29;20021;-79
2023/02/14 12:02:59;;;;;;;13.50;11.15;;;8.90;82.40;;;;;;4840113;29;20129;-79
2023/02/14 12:05:30;;;;;;;13.65;10.82;;;9.00;82.60;;;;;;4861256;29;20057;-79
2023/02/14 12:07:58;;;;;;;13.93;10.77;;;9.10;82.70;;;;;;4863940;29;20025;-79
2023/02/14 12:10:29;;;;;;;14.20;11.93;;;9.10;82.70;;;;;;4861238;29;20113;-81
2023/02/14 12:12:57;;;;;;;14.57;11.57;;;9.10;83.40;;;;;;4846351;29;20040;-79
2023/02/14 12:15:33;;;;;;;13.98;11.23;;;9.20;82.80;;;;;;4861516;29;20486;-81
2023/02/14 12:18:16;;;;;;;13.73;11.45;;;9.30;82.90;;;;;;4859003;29;20202;-79
2023/02/14 12:21:15;;;;;;;13.32;10.80;;;9.30;82.90;;;;;;4860924;29;20029;-79
2023/02/14 12:23:44;;;;;;;12.90;10.32;;;9.40;83.00;;;;;;4868996;29;20033;-79
2023/02/14 12:26:45;;;;;;;13.70;11.18;;;9.40;82.90;;;;;;4860668;29;20029;-79
2023/02/14 12:29:11;;;;;;;14.20;11.43;;;9.50;83.10;;;;;;4861773;29;20033;-80
2023/02/14 12:31:37;;;;;;;13.48;11.48;;;9.50;83.00;;;;;;4862732;29;20082;-80
2023/02/14 12:34:04;;;;;;;14.93;11.80;;;9.60;83.10;;;;;;4831504;29;20436;-81
2023/02/14 12:36:46;;;;;;;16.45;12.23;;;9.60;83.10;;;;;;4861709;29;20478;-81
2023/02/14 12:39:35;;;;;;;14.35;11.35;;;9.70;83.30;;;;;;4860892;29;20332;-82
2023/02/14 12:42:19;;;;;;;12.25;9.98;;;9.80;83.30;;;;;;4843683;29;20467;-82
2023/02/14 12:45:11;;;;;;;14.50;11.20;;;9.80;83.20;;;;;;4844638;29;20040;-80
2023/02/14 12:47:37;;;;;;;14.35;11.13;;;9.90;83.30;;;;;;4840210;29;20530;-81
2023/02/14 12:50:15;;;;;;;15.32;11.73;;;9.90;83.10;;;;;;4860133;29;20037;-81
2023/02/14 12:53:01;;;;;;;13.57;11.45;;;10.00;83.30;;;;;;4860360;29;20044;-78
2023/02/14 12:55:37;;;;;;;12.55;10.45;;;10.10;83.40;;;;;;4859811;29;20451;-82
2023/02/14 12:58:30;;;;;;;15.25;11.80;;;10.20;83.40;;;;;;4842948;29;20037;-79
2023/02/14 13:01:27;;;;;;;13.27;11.10;;;10.20;83.40;;;;;;4864428;29;20025;-80
2023/02/14 13:04:27;;;;;;;12.77;9.95;;;10.30;83.40;;;;;;4867675;29;20101;-78
2023/02/14 13:07:00;;;;;;;13.65;10.77;;;10.40;83.50;;;;;;4861952;29;20036;-81
2023/02/14 13:10:09;;;;;;;13.93;10.73;;;10.40;83.40;;;;;;4855774;29;20037;-81
2023/02/14 13:12:45;;;;;;;13.93;11.20;;;10.50;83.50;;;;;;4859208;29;20037;-80
2023/02/14 13:15:13;;;;;;;14.45;11.82;;;10.60;83.50;;;;;;4839580;29;20073;-80
2023/02/14 13:17:43;;;;;;;13.52;11.10;;;10.60;83.40;;;;;;4888389;29;20089;-80
2023/02/14 13:20:44;;;;;;;13.25;11.02;;;10.60;83.50;;;;;;4867350;29;20489;-80
2023/02/14 13:23:39;;;;;;;15.10;11.95;;;10.80;83.80;;;;;;4855419;29;20068;-80
2023/02/14 13:26:13;;;;;;;12.90;10.57;;;10.80;83.70;;;;;;4861066;29;20036;-80
2023/02/14 13:28:52;;;;;;;14.93;11.37;;;10.90;83.60;;;;;;4855169;29;20491;-80
2023/02/14 13:31:19;;;;;;;14.48;11.27;;;10.90;83.70;;;;;;4853226;29;20373;-80